createdAt,value
2023-02-04T00:00:22.883Z,102480.03
2023-02-04T00:02:49.882Z,102504.66
2023-02-04T00:05:19.912Z,102484.44
2023-02-04T00:07:46.300Z,102499.00
2023-02-04T00:10:13.037Z,102385.13
2023-02-04T00:12:39.404Z,102486.66
2023-02-04T00:15:06.468Z,102514.88
2023-02-04T00:17:32.878Z,102483.25
2023-02-04T00:19:59.265Z,102477.16
2023-02-04T00:22:28.415Z,102499.78
2023-02-04T00:24:54.932Z,102481.56
2023-02-04T00:27:21.359Z,102462.81
2023-02-04T00:29:47.711Z,102514.75
2023-02-04T00:32:14.156Z,102487.78
2023-02-04T00:34:41.071Z,102482.47
2023-02-04T00:37:07.745Z,102484.19
2023-02-04T00:39:34.157Z,102465.44
2023-02-04T00:42:00.791Z,102474.53
2023-02-04T00:44:27.219Z,102497.91
2023-02-04T00:46:53.639Z,102506.75
2023-02-04T00:49:19.980Z,102526.00
2023-02-04T00:51:46.613Z,102478.56
2023-02-04T00:54:15.766Z,102412.13
2023-02-04T00:56:43.407Z,102494.50
2023-02-04T00:59:10.250Z,102426.09
2023-02-04T01:01:37.244Z,102472.53
2023-02-04T01:04:03.923Z,102505.03
2023-02-04T01:06:30.314Z,102484.13
2023-02-04T01:08:56.650Z,102439.31
2023-02-04T01:11:23.111Z,102545.53
2023-02-04T01:13:49.431Z,102517.13
2023-02-04T01:16:15.838Z,102550.38
2023-02-04T01:18:42.252Z,102534.72
2023-02-04T01:21:08.575Z,102448.84
2023-02-04T01:23:34.923Z,102550.50
2023-02-04T01:26:01.330Z,102461.78
2023-02-04T01:28:27.996Z,102530.19
2023-02-04T01:30:54.511Z,102560.81
2023-02-04T01:33:21.029Z,102478.47
2023-02-04T01:35:47.409Z,102550.47
2023-02-04T01:38:13.935Z,102508.34
2023-02-04T01:40:41.925Z,102548.66
2023-02-04T01:43:09.000Z,102560.91
2023-02-04T01:45:35.867Z,102559.19
2023-02-04T01:48:07.440Z,102567.88
2023-02-04T01:50:34.552Z,102417.00
2023-02-04T01:53:01.279Z,102363.00
2023-02-04T01:55:31.252Z,102541.41
2023-02-04T01:57:58.965Z,102533.66
2023-02-04T02:00:31.508Z,102573.88
2023-02-04T02:02:59.419Z,102585.16
2023-02-04T02:05:32.729Z,102564.06
2023-02-04T02:08:02.041Z,102544.59
2023-02-04T02:10:29.608Z,102563.09
2023-02-04T02:12:57.146Z,102541.84
2023-02-04T02:15:24.701Z,102588.53
2023-02-04T02:17:53.087Z,102580.59
2023-02-04T02:20:22.293Z,102569.16
2023-02-04T02:23:46.149Z,102596.38
2023-02-04T02:26:13.836Z,102587.31
2023-02-04T02:28:40.316Z,102491.63
2023-02-04T02:31:07.184Z,102602.25
2023-02-04T02:33:34.137Z,102574.13
2023-02-04T02:36:00.805Z,102508.03
2023-02-04T02:38:27.252Z,102505.50
2023-02-04T02:40:54.416Z,102538.69
2023-02-04T02:43:23.870Z,102621.13
2023-02-04T02:45:51.233Z,102574.59
2023-02-04T02:48:18.120Z,102623.91
2023-02-04T02:50:45.163Z,102509.78
2023-02-04T02:53:14.197Z,102632.72
2023-02-04T02:55:40.784Z,102607.22
2023-02-04T02:58:15.503Z,102561.50
2023-02-04T03:00:41.872Z,102560.38
2023-02-04T03:03:17.882Z,102545.56
2023-02-04T03:05:47.876Z,102603.53
2023-02-04T03:08:16.343Z,102524.28
2023-02-04T03:10:44.128Z,102569.16
2023-02-04T03:13:13.529Z,102562.97
2023-02-04T03:15:41.265Z,102614.00
2023-02-04T03:18:07.856Z,102590.78
2023-02-04T03:20:35.121Z,102606.84
2023-02-04T03:23:01.666Z,102612.06
2023-02-04T03:25:28.735Z,102611.94
2023-02-04T03:27:58.220Z,102643.44
2023-02-04T03:30:25.995Z,102639.91
2023-02-04T03:32:52.746Z,102515.06
2023-02-04T03:35:19.923Z,102638.22
2023-02-04T03:37:46.358Z,102655.59
2023-02-04T03:40:13.183Z,102622.09
2023-02-04T03:42:39.664Z,102629.06
2023-02-04T03:45:06.190Z,102623.78
2023-02-04T03:47:32.821Z,102634.16
2023-02-04T03:49:59.228Z,102622.88
2023-02-04T03:52:25.613Z,102654.31
2023-02-04T03:54:51.984Z,102650.91
2023-02-04T03:57:18.386Z,102590.22
2023-02-04T03:59:44.758Z,102627.13
2023-02-04T04:02:11.075Z,102649.22
2023-02-04T04:04:37.408Z,102614.94
2023-02-04T04:07:03.824Z,102650.13
2023-02-04T04:09:30.184Z,102650.97
2023-02-04T04:11:56.654Z,102615.78
2023-02-04T04:14:23.034Z,102599.03
2023-02-04T04:16:49.418Z,102646.56
2023-02-04T04:19:15.738Z,102537.47
2023-02-04T04:21:42.094Z,102637.69
2023-02-04T04:24:08.457Z,102586.59
2023-02-04T04:26:34.886Z,102641.25
2023-02-04T04:29:01.232Z,102549.69
2023-02-04T04:31:27.689Z,102604.13
2023-02-04T04:33:54.111Z,102664.69
2023-02-04T04:36:20.434Z,102675.91
2023-02-04T04:38:46.764Z,102577.59
2023-02-04T04:41:13.108Z,102646.03
2023-02-04T04:43:39.450Z,102674.22
2023-02-04T04:46:05.912Z,102668.22
2023-02-04T04:48:32.378Z,102659.72
2023-02-04T04:50:58.777Z,102679.69
2023-02-04T04:53:25.150Z,102659.66
2023-02-04T04:55:51.493Z,102548.00
2023-02-04T04:58:17.834Z,102585.81
2023-02-04T05:00:44.238Z,102688.72
2023-02-04T05:03:10.764Z,102563.69
2023-02-04T05:05:40.684Z,102593.34
2023-02-04T05:08:13.250Z,102692.88
2023-02-04T05:10:40.442Z,102596.19
2023-02-04T05:13:06.878Z,102672.66
2023-02-04T05:15:33.524Z,102606.53
2023-02-04T05:17:59.936Z,102670.75
2023-02-04T05:20:26.404Z,102607.34
2023-02-04T05:22:53.297Z,102593.56
2023-02-04T05:25:19.708Z,102609.22
2023-02-04T05:27:46.108Z,102647.03
2023-02-04T05:30:14.049Z,102623.28
2023-02-04T05:32:41.062Z,102612.56
2023-02-04T05:35:08.271Z,102707.66
2023-02-04T05:37:34.648Z,102619.84
2023-02-04T05:40:01.010Z,102621.41
2023-02-04T05:42:27.400Z,102698.75
2023-02-04T05:44:53.736Z,102664.38
2023-02-04T05:47:20.452Z,102720.66
2023-02-04T05:49:46.984Z,102691.69
2023-02-04T05:52:13.330Z,102621.06
2023-02-04T05:54:39.693Z,102685.38
2023-02-04T05:57:06.851Z,102618.22
2023-02-04T05:59:33.206Z,102633.13
2023-02-04T06:01:59.550Z,102589.16
2023-02-04T06:04:25.919Z,102729.94
2023-02-04T06:06:52.467Z,102737.81
2023-02-04T06:09:18.851Z,102686.88
2023-02-04T06:11:45.247Z,102613.66
2023-02-04T06:14:11.660Z,102749.16
2023-02-04T06:16:38.068Z,102696.47
2023-02-04T06:19:04.454Z,102654.09
2023-02-04T06:21:30.849Z,102686.66
2023-02-04T06:23:57.173Z,102763.19
2023-02-04T06:26:24.667Z,102742.06
2023-02-04T06:28:51.099Z,102747.22
2023-02-04T06:31:17.481Z,102659.16
2023-02-04T06:33:43.883Z,102633.63
2023-02-04T06:36:10.257Z,102775.47
2023-02-04T06:38:36.625Z,102682.00
2023-02-04T06:41:02.953Z,102674.91
2023-02-04T06:43:29.348Z,102763.91
2023-02-04T06:45:55.764Z,102694.44
2023-02-04T06:48:22.163Z,102775.47
2023-02-04T06:50:48.516Z,102773.50
2023-02-04T06:53:14.913Z,102700.50
2023-02-04T06:55:41.276Z,102755.91
2023-02-04T06:58:07.658Z,102759.41
2023-02-04T07:00:34.378Z,102767.31
2023-02-04T07:03:01.032Z,102773.31
2023-02-04T07:05:27.417Z,102767.97
2023-02-04T07:07:53.768Z,102768.72
2023-02-04T07:10:23.020Z,102805.75
2023-02-04T07:12:49.339Z,102799.34
2023-02-04T07:15:16.112Z,102778.41
2023-02-04T07:17:42.433Z,102698.84
2023-02-04T07:20:10.365Z,102788.06
2023-02-04T07:22:36.724Z,102746.59
2023-02-04T07:25:03.804Z,102769.50
2023-02-04T07:27:30.534Z,102792.47
2023-02-04T07:29:56.873Z,102691.78
2023-02-04T07:32:23.289Z,102692.63
2023-02-04T07:34:49.658Z,102705.59
2023-02-04T07:37:16.065Z,102781.41
2023-02-04T07:39:42.397Z,102744.66
2023-02-04T07:42:09.120Z,102815.00
2023-02-04T07:44:35.517Z,102725.19
2023-02-04T07:47:01.891Z,102822.69
2023-02-04T07:49:28.830Z,102829.09
2023-02-04T07:51:55.267Z,102808.63
2023-02-04T07:54:23.053Z,102839.31
2023-02-04T07:56:49.508Z,102859.63
2023-02-04T07:59:15.901Z,102786.53
2023-02-04T08:01:42.277Z,102834.78
2023-02-04T08:04:08.677Z,102766.28
2023-02-04T08:06:35.103Z,102728.50
2023-02-04T08:09:01.431Z,102849.31
2023-02-04T08:11:53.629Z,102787.75
2023-02-04T08:14:18.159Z,102684.75
2023-02-04T08:16:44.530Z,102720.03
2023-02-04T08:19:10.959Z,102847.59
2023-02-04T08:21:37.333Z,102635.41
2023-02-04T08:24:04.212Z,102677.97
2023-02-04T08:26:30.675Z,102786.78
2023-02-04T08:28:57.032Z,102865.13
2023-02-04T08:31:23.513Z,102851.72
2023-02-04T08:33:49.922Z,102772.88
2023-02-04T08:36:16.718Z,102827.66
2023-02-04T08:38:44.559Z,102775.66
2023-02-04T08:41:11.205Z,102844.88
2023-02-04T08:43:37.658Z,102883.75
2023-02-04T08:46:05.467Z,102877.13
2023-02-04T08:48:31.865Z,102884.69
2023-02-04T08:50:58.256Z,102809.00
2023-02-04T08:53:24.660Z,102865.19
2023-02-04T08:55:51.030Z,102875.81
2023-02-04T08:58:17.377Z,102897.94
2023-02-04T09:00:43.701Z,102891.06
2023-02-04T09:03:10.399Z,102893.09
2023-02-04T09:05:39.814Z,102894.47
2023-02-04T09:08:06.167Z,102884.22
2023-02-04T09:10:32.846Z,102899.00
2023-02-04T09:12:59.434Z,102875.41
2023-02-04T09:15:25.951Z,102903.94
2023-02-04T09:18:04.356Z,102873.28
2023-02-04T09:20:31.087Z,102913.59
2023-02-04T09:22:57.642Z,102779.81
2023-02-04T09:25:24.042Z,102811.22
2023-02-04T09:27:50.502Z,102861.00
2023-02-04T09:30:17.124Z,102898.75
2023-02-04T09:32:43.476Z,102850.34
2023-02-04T09:35:09.937Z,102924.50
2023-02-04T09:37:36.266Z,102816.16
2023-02-04T09:40:02.734Z,102780.13
2023-02-04T09:42:29.217Z,102904.63
2023-02-04T09:44:55.650Z,102829.25
2023-02-04T09:47:25.280Z,102827.78
2023-02-04T09:49:52.049Z,102861.34
2023-02-04T09:52:18.670Z,102859.75
2023-02-04T09:54:45.230Z,102853.66
2023-02-04T09:57:19.590Z,102935.53
2023-02-04T09:59:46.311Z,102801.72
2023-02-04T10:02:21.549Z,102823.81
2023-02-04T10:04:48.401Z,102891.81
2023-02-04T10:07:21.957Z,102949.00
2023-02-04T10:09:50.106Z,102844.56
2023-02-04T10:12:16.609Z,102895.47
2023-02-04T10:14:43.699Z,102858.81
2023-02-04T10:17:11.516Z,102855.34
2023-02-04T10:19:38.005Z,102857.09
2023-02-04T10:22:16.970Z,102849.97
2023-02-04T10:24:43.532Z,102944.38
2023-02-04T10:27:11.911Z,102891.25
2023-02-04T10:29:40.253Z,102852.72
2023-02-04T10:32:06.742Z,102865.00
2023-02-04T10:34:43.708Z,102925.94
2023-02-04T10:37:21.269Z,102942.66
2023-02-04T10:39:49.644Z,102849.47
2023-02-04T10:42:27.581Z,102938.72
2023-02-04T10:44:54.835Z,102930.84
2023-02-04T10:47:24.529Z,102829.56
2023-02-04T10:50:00.286Z,102925.66
2023-02-04T10:52:35.133Z,102887.78
2023-02-04T10:55:04.422Z,102947.81
2023-02-04T10:57:33.045Z,102900.63
2023-02-04T11:00:02.324Z,102815.38
2023-02-04T11:02:48.990Z,102916.44
2023-02-04T11:05:21.437Z,102941.09
2023-02-04T11:07:49.543Z,102933.22
2023-02-04T11:10:22.052Z,102855.81
2023-02-04T11:12:54.486Z,102949.88
2023-02-04T11:15:36.172Z,102942.66
2023-02-04T11:18:04.870Z,102947.97
2023-02-04T11:20:34.148Z,102912.06
2023-02-04T11:23:25.561Z,102949.03
2023-02-04T11:26:32.604Z,102945.47
2023-02-04T11:28:58.879Z,102953.34
2023-02-04T11:31:27.155Z,102935.75
2023-02-04T11:34:22.953Z,102942.94
2023-02-04T11:37:07.974Z,102941.28
2023-02-04T11:39:42.329Z,102913.28
2023-02-04T11:42:23.151Z,102930.13
2023-02-04T11:44:54.669Z,102938.94
2023-02-04T11:47:23.669Z,102904.84
2023-02-04T11:49:55.973Z,102943.63
2023-02-04T11:52:22.465Z,102920.91
2023-02-04T11:54:59.589Z,102931.50
2023-02-04T11:57:26.822Z,102949.06
2023-02-04T11:59:54.210Z,102949.94
2023-02-04T12:02:23.875Z,102925.34
2023-02-04T12:05:12.610Z,102931.41
2023-02-04T12:07:39.947Z,102899.66
2023-02-04T12:10:24.120Z,102957.53
2023-02-04T12:12:57.572Z,102904.69
2023-02-04T12:15:36.139Z,102907.25
2023-02-04T12:18:04.574Z,102950.31
2023-02-04T12:20:31.149Z,102933.63
2023-02-04T12:22:57.656Z,102929.28
2023-02-04T12:25:24.531Z,102917.13
2023-02-04T12:27:51.705Z,102903.16
2023-02-04T12:30:20.552Z,102923.38
2023-02-04T12:32:46.921Z,102900.47
2023-02-04T12:35:13.830Z,102848.56
2023-02-04T12:37:41.710Z,102923.25
2023-02-04T12:40:09.974Z,102809.75
2023-02-04T12:42:36.408Z,102943.28
2023-02-04T12:45:02.947Z,102897.53
2023-02-04T12:47:29.312Z,102941.47
2023-02-04T12:49:55.673Z,102912.59
2023-02-04T12:52:22.016Z,102898.56
2023-02-04T12:54:48.572Z,102904.78
2023-02-04T12:57:19.579Z,102942.50
2023-02-04T12:59:46.949Z,102939.88
2023-02-04T13:02:13.451Z,102955.69
2023-02-04T13:04:40.464Z,102856.28
2023-02-04T13:07:10.316Z,102921.31
2023-02-04T13:09:37.093Z,102839.66
2023-02-04T13:12:04.167Z,102838.94
2023-02-04T13:14:32.512Z,102950.56
2023-02-04T13:16:59.453Z,102857.28
2023-02-04T13:19:25.821Z,102781.81
2023-02-04T13:21:52.185Z,102844.03
2023-02-04T13:24:18.524Z,102846.75
2023-02-04T13:26:44.948Z,102860.91
2023-02-04T13:29:11.800Z,102869.63
2023-02-04T13:31:38.192Z,102906.41
2023-02-04T13:34:04.560Z,102857.19
2023-02-04T13:36:30.876Z,102883.50
2023-02-04T13:39:01.008Z,102853.53
2023-02-04T13:41:28.224Z,102876.34
2023-02-04T13:43:54.730Z,102863.22
2023-02-04T13:46:21.913Z,102936.31
2023-02-04T13:48:48.287Z,102852.00
2023-02-04T13:51:14.664Z,102815.13
2023-02-04T13:53:41.025Z,102862.50
2023-02-04T13:56:07.567Z,102833.63
2023-02-04T13:58:34.111Z,102897.66
2023-02-04T14:01:02.917Z,102865.25
2023-02-04T14:03:30.047Z,102833.63
2023-02-04T14:05:56.747Z,102831.00
2023-02-04T14:08:23.699Z,102805.50
2023-02-04T14:10:50.097Z,102884.56
2023-02-04T14:13:16.812Z,102808.13
2023-02-04T14:15:43.152Z,102910.16
2023-02-04T14:18:10.922Z,102918.13
2023-02-04T14:20:37.696Z,102917.19
2023-02-04T14:23:05.856Z,102878.53
2023-02-04T14:25:32.228Z,102864.53
2023-02-04T14:28:00.177Z,102797.72
2023-02-04T14:30:28.992Z,102918.06
2023-02-04T14:32:56.526Z,102918.16
2023-02-04T14:35:23.044Z,102830.38
2023-02-04T14:37:49.682Z,102919.94
2023-02-04T14:40:18.237Z,102886.59
2023-02-04T14:42:45.334Z,102867.13
2023-02-04T14:45:13.764Z,102909.22
2023-02-04T14:47:40.510Z,102916.22
2023-02-04T14:50:10.930Z,102932.94
2023-02-04T14:52:37.340Z,102825.59
2023-02-04T14:55:03.932Z,102823.69
2023-02-04T14:57:30.267Z,102870.94
2023-02-04T14:59:56.686Z,102884.09
2023-02-04T15:02:23.264Z,102921.03
2023-02-04T15:04:49.761Z,102839.94
2023-02-04T15:07:16.143Z,102869.16
2023-02-04T15:09:44.524Z,102844.28
2023-02-04T15:12:11.444Z,102878.66
2023-02-04T15:14:37.862Z,102891.81
2023-02-04T15:17:04.313Z,102911.97
2023-02-04T15:19:33.538Z,102851.22
2023-02-04T15:22:14.292Z,102920.63
2023-02-04T15:24:40.629Z,102815.69
2023-02-04T15:27:07.074Z,102883.59
2023-02-04T15:29:33.501Z,102896.69
2023-02-04T15:32:00.075Z,102903.88
2023-02-04T15:34:26.553Z,102969.78
2023-02-04T15:36:52.946Z,102854.53
2023-02-04T15:39:19.319Z,102865.94
2023-02-04T15:41:45.663Z,102966.22
2023-02-04T15:44:12.526Z,102907.25
2023-02-04T15:46:38.974Z,102924.75
2023-02-04T15:49:05.442Z,102849.19
2023-02-04T15:51:31.839Z,102936.19
2023-02-04T15:53:58.186Z,102958.19
2023-02-04T15:56:24.651Z,102966.84
2023-02-04T15:58:50.974Z,102962.63
2023-02-04T16:01:17.439Z,102872.91
2023-02-04T16:03:45.852Z,102934.47
2023-02-04T16:06:12.225Z,102931.75
2023-02-04T16:08:38.830Z,102975.59
2023-02-04T16:11:06.130Z,102965.94
2023-02-04T16:13:32.857Z,102957.03
2023-02-04T16:15:59.319Z,102917.41
2023-02-04T16:18:25.781Z,102955.19
2023-02-04T16:20:52.428Z,102940.19
2023-02-04T16:23:18.905Z,102957.88
2023-02-04T16:25:45.239Z,102935.75
2023-02-04T16:28:11.712Z,102963.03
2023-02-04T16:30:39.309Z,102972.75
2023-02-04T16:33:06.835Z,102975.41
2023-02-04T16:35:58.191Z,102973.63
2023-02-04T16:38:25.915Z,102867.06
2023-02-04T16:40:52.893Z,102962.94
2023-02-04T16:43:19.463Z,102894.13
2023-02-04T16:45:46.213Z,102984.03
2023-02-04T16:48:12.662Z,102943.47
2023-02-04T16:50:39.039Z,102955.78
2023-02-04T16:53:05.604Z,102929.94
2023-02-04T16:55:33.480Z,102900.03
2023-02-04T16:58:00.094Z,102941.41
2023-02-04T17:00:26.500Z,102985.47
2023-02-04T17:02:53.596Z,103001.31
2023-02-04T17:05:19.985Z,102914.09
2023-02-04T17:07:46.310Z,102997.81
2023-02-04T17:10:12.669Z,102981.09
2023-02-04T17:12:39.065Z,102868.47
2023-02-04T17:15:05.783Z,103012.81
2023-02-04T17:17:32.281Z,102983.63
2023-02-04T17:20:00.310Z,102901.56
2023-02-04T17:22:26.840Z,102949.84
2023-02-04T17:24:54.741Z,102970.84
2023-02-04T17:27:21.274Z,103009.53
2023-02-04T17:29:47.814Z,102925.84
2023-02-04T17:32:14.250Z,103005.16
2023-02-04T17:34:40.807Z,102946.13
2023-02-04T17:37:07.313Z,103009.59
2023-02-04T17:39:33.932Z,102823.81
2023-02-04T17:42:03.199Z,103004.22
2023-02-04T17:44:30.119Z,102936.50
2023-02-04T17:46:59.026Z,102843.09
2023-02-04T17:49:27.983Z,102834.25
2023-02-04T17:51:54.678Z,102813.31
2023-02-04T17:54:21.250Z,102810.59
2023-02-04T17:56:56.904Z,102930.16
2023-02-04T17:59:23.981Z,103012.09
2023-02-04T18:01:58.109Z,103038.53
2023-02-04T18:04:25.186Z,103007.56
2023-02-04T18:06:52.094Z,102996.19
2023-02-04T18:09:18.757Z,102996.13
2023-02-04T18:11:45.898Z,102935.28
2023-02-04T18:14:17.487Z,102975.88
2023-02-04T18:16:44.700Z,103045.34
2023-02-04T18:19:21.839Z,103039.31
2023-02-04T18:21:49.539Z,103035.88
2023-02-04T18:24:30.056Z,103002.56
2023-02-04T18:27:01.065Z,103037.88
2023-02-04T18:29:32.904Z,103043.16
2023-02-04T18:32:16.112Z,103023.75
2023-02-04T18:34:53.025Z,102933.88
2023-02-04T18:37:36.543Z,103039.56
2023-02-04T18:40:09.008Z,103036.00
2023-02-04T18:42:43.798Z,103042.84
2023-02-04T18:45:22.977Z,103038.34
2023-02-04T18:47:49.966Z,102939.81
2023-02-04T18:50:28.163Z,103039.25
2023-02-04T18:52:54.554Z,103001.47
2023-02-04T18:55:34.772Z,103032.25
2023-02-04T18:58:40.723Z,103032.00
2023-02-04T19:01:10.130Z,103016.88
2023-02-04T19:03:45.475Z,103013.41
2023-02-04T19:06:25.486Z,102980.81
2023-02-04T19:08:52.596Z,102896.09
2023-02-04T19:11:41.565Z,103015.53
2023-02-04T19:14:33.064Z,103017.22
2023-02-04T19:17:22.351Z,102959.88
2023-02-04T19:19:57.852Z,103024.97
2023-02-04T19:22:46.070Z,103018.88
2023-02-04T19:25:25.180Z,102999.53
2023-02-04T19:27:54.923Z,102934.38
2023-02-04T19:30:27.636Z,103022.41
2023-02-04T19:33:02.177Z,103013.47
2023-02-04T19:35:39.254Z,103009.78
2023-02-04T19:38:22.545Z,103004.34
2023-02-04T19:40:51.580Z,102978.91
2023-02-04T19:43:26.809Z,103007.16
2023-02-04T19:45:54.335Z,102986.94
2023-02-04T19:48:36.346Z,103013.47
2023-02-04T19:51:28.075Z,103033.66
2023-02-04T19:54:39.203Z,103023.06
2023-02-04T19:57:25.658Z,103031.00
2023-02-04T19:59:56.432Z,103023.88
2023-02-04T20:02:36.472Z,103013.16
2023-02-04T20:05:15.820Z,103034.28
2023-02-04T20:07:42.450Z,103032.41
2023-02-04T20:10:25.943Z,102991.88
2023-02-04T20:12:59.352Z,103044.59
2023-02-04T20:15:25.984Z,103041.09
2023-02-04T20:17:52.855Z,102957.13
2023-02-04T20:20:21.430Z,103037.28
2023-02-04T20:22:48.872Z,103038.03
2023-02-04T20:25:36.750Z,103034.97
2023-02-04T20:28:15.459Z,103012.72
2023-02-04T20:30:41.985Z,102903.53
2023-02-04T20:33:44.980Z,102982.22
2023-02-04T20:36:28.390Z,102938.25
2023-02-04T20:39:17.331Z,103017.59
2023-02-04T20:41:43.670Z,102964.22
2023-02-04T20:44:20.529Z,103012.69
2023-02-04T20:46:46.914Z,103001.03
2023-02-04T20:49:25.336Z,103025.94
2023-02-04T20:51:59.156Z,102974.03
2023-02-04T20:54:29.484Z,102970.44
2023-02-04T20:57:14.616Z,103017.47
2023-02-04T20:59:42.638Z,102975.34
2023-02-04T21:02:20.881Z,102920.66
2023-02-04T21:04:51.942Z,103006.34
2023-02-04T21:07:22.732Z,103005.44
2023-02-04T21:09:49.616Z,102953.53
2023-02-04T21:12:16.034Z,102998.44
2023-02-04T21:14:42.610Z,102992.31
2023-02-04T21:17:08.961Z,102994.84
2023-02-04T21:19:35.411Z,102974.13
2023-02-04T21:22:02.228Z,103035.69
2023-02-04T21:24:31.404Z,103010.84
2023-02-04T21:26:57.760Z,102993.97
2023-02-04T21:29:25.958Z,103010.84
2023-02-04T21:31:54.258Z,103013.72
2023-02-04T21:34:20.708Z,103032.22
2023-02-04T21:36:47.117Z,102986.47
2023-02-04T21:39:13.557Z,102950.41
2023-02-04T21:41:39.895Z,102967.19
2023-02-04T21:44:06.235Z,103001.63
2023-02-04T21:46:33.009Z,103032.34
2023-02-04T21:48:59.650Z,102994.31
2023-02-04T21:51:27.923Z,103017.16
2023-02-04T21:53:54.258Z,103009.16
2023-02-04T21:56:20.589Z,103020.75
2023-02-04T21:58:46.901Z,103026.03
2023-02-04T22:01:15.566Z,102996.19
2023-02-04T22:03:41.933Z,102998.81
2023-02-04T22:06:08.319Z,103022.53
2023-02-04T22:08:34.656Z,102960.13
2023-02-04T22:11:01.005Z,103004.34
2023-02-04T22:13:27.361Z,103001.50
2023-02-04T22:15:53.711Z,103018.94
2023-02-04T22:18:20.680Z,103008.47
2023-02-04T22:20:47.025Z,102886.88
2023-02-04T22:23:13.367Z,102991.03
2023-02-04T22:25:39.703Z,102936.50
2023-02-04T22:28:06.056Z,102955.97
2023-02-04T22:30:32.412Z,102940.22
2023-02-04T22:33:00.653Z,102992.03
2023-02-04T22:35:29.624Z,102989.22
2023-02-04T22:37:55.943Z,102980.31
2023-02-04T22:40:22.268Z,103013.50
2023-02-04T22:42:48.603Z,102993.91
2023-02-04T22:45:14.960Z,103013.69
2023-02-04T22:47:41.344Z,103025.84
2023-02-04T22:50:08.519Z,103001.31
2023-02-04T22:52:34.975Z,102969.63
2023-02-04T22:55:01.392Z,102995.13
2023-02-04T22:57:27.766Z,103003.88
2023-02-04T22:59:54.081Z,102929.59
2023-02-04T23:02:20.434Z,102979.13
2023-02-04T23:04:46.771Z,103041.56
2023-02-04T23:07:13.864Z,103023.22
2023-02-04T23:09:40.430Z,103006.41
2023-02-04T23:12:13.066Z,103039.97
2023-02-04T23:14:42.072Z,102984.38
2023-02-04T23:17:09.235Z,103002.94
2023-02-04T23:19:35.703Z,103018.78
2023-02-04T23:22:02.608Z,103013.47
2023-02-04T23:24:29.939Z,103005.66
2023-02-04T23:26:58.526Z,102948.06
2023-02-04T23:29:24.881Z,103034.34
2023-02-04T23:31:51.240Z,103045.72
2023-02-04T23:34:17.601Z,103035.06
2023-02-04T23:36:45.588Z,103022.72
2023-02-04T23:39:12.439Z,103033.16
2023-02-04T23:41:38.818Z,103012.06
2023-02-04T23:44:05.207Z,102994.34
2023-02-04T23:46:31.574Z,103007.63
2023-02-04T23:48:57.900Z,103003.09
2023-02-04T23:51:24.320Z,102990.88
2023-02-04T23:53:50.669Z,103019.31
2023-02-04T23:56:16.988Z,102980.31
2023-02-04T23:58:43.374Z,103000.88
